sensor_id;sensor_type;location;lat;lon;timestamp;temperature;humidity
48579;DHT22;34357;51.948;6.132;2024-01-27T00:01:50;2.80;90.70
48579;DHT22;34357;51.948;6.132;2024-01-27T00:04:16;2.70;90.80
48579;DHT22;34357;51.948;6.132;2024-01-27T00:06:42;2.60;90.80
48579;DHT22;34357;51.948;6.132;2024-01-27T00:09:07;2.50;91.00
48579;DHT22;34357;51.948;6.132;2024-01-27T00:11:33;2.60;91.10
48579;DHT22;34357;51.948;6.132;2024-01-27T00:13:59;2.50;91.10
48579;DHT22;34357;51.948;6.132;2024-01-27T00:16:25;2.60;91.20
48579;DHT22;34357;51.948;6.132;2024-01-27T00:18:51;2.50;91.20
48579;DHT22;34357;51.948;6.132;2024-01-27T00:21:17;2.40;91.20
48579;DHT22;34357;51.948;6.132;2024-01-27T00:23:42;2.40;91.10
48579;DHT22;34357;51.948;6.132;2024-01-27T00:26:08;2.30;91.20
48579;DHT22;34357;51.948;6.132;2024-01-27T00:28:34;2.20;91.30
48579;DHT22;34357;51.948;6.132;2024-01-27T00:31:00;2.20;91.40
48579;DHT22;34357;51.948;6.132;2024-01-27T00:33:25;2.10;91.60
48579;DHT22;34357;51.948;6.132;2024-01-27T00:35:51;2.10;91.60
48579;DHT22;34357;51.948;6.132;2024-01-27T00:38:17;2.00;91.70
48579;DHT22;34357;51.948;6.132;2024-01-27T00:40:43;2.00;91.90
48579;DHT22;34357;51.948;6.132;2024-01-27T00:43:09;2.10;92.00
48579;DHT22;34357;51.948;6.132;2024-01-27T00:45:34;2.00;92.00
48579;DHT22;34357;51.948;6.132;2024-01-27T00:48:00;2.00;92.00
48579;DHT22;34357;51.948;6.132;2024-01-27T00:50:26;1.90;92.10
48579;DHT22;34357;51.948;6.132;2024-01-27T00:52:52;1.90;92.10
48579;DHT22;34357;51.948;6.132;2024-01-27T00:55:18;1.90;92.00
48579;DHT22;34357;51.948;6.132;2024-01-27T00:57:44;1.90;92.20
48579;DHT22;34357;51.948;6.132;2024-01-27T01:00:10;1.90;92.10
48579;DHT22;34357;51.948;6.132;2024-01-27T01:02:37;1.90;92.00
48579;DHT22;34357;51.948;6.132;2024-01-27T01:05:03;1.80;92.10
48579;DHT22;34357;51.948;6.132;2024-01-27T01:07:33;1.90;92.30
48579;DHT22;34357;51.948;6.132;2024-01-27T01:09:59;1.90;92.10
48579;DHT22;34357;51.948;6.132;2024-01-27T01:12:24;1.90;92.10
48579;DHT22;34357;51.948;6.132;2024-01-27T01:14:53;1.90;92.20
48579;DHT22;34357;51.948;6.132;2024-01-27T01:17:19;1.90;92.20
48579;DHT22;34357;51.948;6.132;2024-01-27T01:19:45;1.90;92.30
48579;DHT22;34357;51.948;6.132;2024-01-27T01:22:10;1.90;92.30
48579;DHT22;34357;51.948;6.132;2024-01-27T01:24:36;2.00;92.30
48579;DHT22;34357;51.948;6.132;2024-01-27T01:27:02;1.90;92.10
48579;DHT22;34357;51.948;6.132;2024-01-27T01:29:28;2.00;92.20
48579;DHT22;34357;51.948;6.132;2024-01-27T01:31:54;1.90;92.20
48579;DHT22;34357;51.948;6.132;2024-01-27T01:34:19;2.10;92.20
48579;DHT22;34357;51.948;6.132;2024-01-27T01:36:45;2.00;92.20
48579;DHT22;34357;51.948;6.132;2024-01-27T01:39:11;1.90;92.10
48579;DHT22;34357;51.948;6.132;2024-01-27T01:41:40;1.90;92.20
48579;DHT22;34357;51.948;6.132;2024-01-27T01:44:06;1.80;92.20
48579;DHT22;34357;51.948;6.132;2024-01-27T01:46:33;1.70;92.30
48579;DHT22;34357;51.948;6.132;2024-01-27T01:48:59;1.70;92.40
48579;DHT22;34357;51.948;6.132;2024-01-27T01:51:26;1.60;92.50
48579;DHT22;34357;51.948;6.132;2024-01-27T01:53:57;1.60;92.60
48579;DHT22;34357;51.948;6.132;2024-01-27T01:56:24;1.60;92.60
48579;DHT22;34357;51.948;6.132;2024-01-27T01:58:50;1.70;92.70
48579;DHT22;34357;51.948;6.132;2024-01-27T02:01:18;1.60;92.60
48579;DHT22;34357;51.948;6.132;2024-01-27T02:03:56;1.60;92.70
48579;DHT22;34357;51.948;6.132;2024-01-27T02:06:22;1.50;92.60
48579;DHT22;34357;51.948;6.132;2024-01-27T02:08:48;1.40;92.70
48579;DHT22;34357;51.948;6.132;2024-01-27T02:11:15;1.40;92.70
48579;DHT22;34357;51.948;6.132;2024-01-27T02:13:41;1.40;92.70
48579;DHT22;34357;51.948;6.132;2024-01-27T02:16:07;1.30;92.80
48579;DHT22;34357;51.948;6.132;2024-01-27T02:18:33;1.30;92.80
48579;DHT22;34357;51.948;6.132;2024-01-27T02:20:58;1.30;92.90
48579;DHT22;34357;51.948;6.132;2024-01-27T02:23:24;1.40;93.00
48579;DHT22;34357;51.948;6.132;2024-01-27T02:25:50;1.30;93.00
48579;DHT22;34357;51.948;6.132;2024-01-27T02:28:16;1.40;93.00
48579;DHT22;34357;51.948;6.132;2024-01-27T02:30:42;1.40;93.00
48579;DHT22;34357;51.948;6.132;2024-01-27T02:33:08;1.40;93.00
48579;DHT22;34357;51.948;6.132;2024-01-27T02:35:34;1.40;93.00
48579;DHT22;34357;51.948;6.132;2024-01-27T02:38:00;1.30;93.00
48579;DHT22;34357;51.948;6.132;2024-01-27T02:40:26;1.30;93.00
48579;DHT22;34357;51.948;6.132;2024-01-27T02:42:52;1.30;93.00
48579;DHT22;34357;51.948;6.132;2024-01-27T02:45:17;1.30;93.10
48579;DHT22;34357;51.948;6.132;2024-01-27T02:47:43;1.30;93.10
48579;DHT22;34357;51.948;6.132;2024-01-27T02:50:11;1.20;93.00
48579;DHT22;34357;51.948;6.132;2024-01-27T02:52:36;1.10;93.00
48579;DHT22;34357;51.948;6.132;2024-01-27T02:55:02;1.20;93.20
48579;DHT22;34357;51.948;6.132;2024-01-27T02:57:28;1.30;93.20
48579;DHT22;34357;51.948;6.132;2024-01-27T02:59:54;1.20;93.10
48579;DHT22;34357;51.948;6.132;2024-01-27T03:02:20;1.20;93.20
48579;DHT22;34357;51.948;6.132;2024-01-27T03:04:45;1.20;93.20
48579;DHT22;34357;51.948;6.132;2024-01-27T03:07:11;1.20;93.20
48579;DHT22;34357;51.948;6.132;2024-01-27T03:09:37;1.30;93.30
48579;DHT22;34357;51.948;6.132;2024-01-27T03:12:02;1.20;93.20
48579;DHT22;34357;51.948;6.132;2024-01-27T03:14:28;1.40;93.30
48579;DHT22;34357;51.948;6.132;2024-01-27T03:16:54;1.40;93.20
48579;DHT22;34357;51.948;6.132;2024-01-27T03:19:20;1.40;93.30
48579;DHT22;34357;51.948;6.132;2024-01-27T03:21:46;1.40;93.20
48579;DHT22;34357;51.948;6.132;2024-01-27T03:24:12;1.40;93.20
48579;DHT22;34357;51.948;6.132;2024-01-27T03:26:37;1.40;93.20
48579;DHT22;34357;51.948;6.132;2024-01-27T03:29:03;1.40;93.30
48579;DHT22;34357;51.948;6.132;2024-01-27T03:31:35;1.30;93.20
48579;DHT22;34357;51.948;6.132;2024-01-27T03:34:01;1.30;93.20
48579;DHT22;34357;51.948;6.132;2024-01-27T03:36:28;1.30;93.30
48579;DHT22;34357;51.948;6.132;2024-01-27T03:38:55;1.30;93.30
48579;DHT22;34357;51.948;6.132;2024-01-27T03:41:21;1.40;93.30
48579;DHT22;34357;51.948;6.132;2024-01-27T03:43:47;1.40;93.30
48579;DHT22;34357;51.948;6.132;2024-01-27T03:46:12;1.30;93.30
48579;DHT22;34357;51.948;6.132;2024-01-27T03:48:38;1.30;93.30
48579;DHT22;34357;51.948;6.132;2024-01-27T03:51:04;1.40;93.40
48579;DHT22;34357;51.948;6.132;2024-01-27T03:53:30;1.30;93.30
48579;DHT22;34357;51.948;6.132;2024-01-27T03:55:56;1.30;93.30
48579;DHT22;34357;51.948;6.132;2024-01-27T03:58:24;1.30;93.30
48579;DHT22;34357;51.948;6.132;2024-01-27T04:00:50;1.20;93.30
48579;DHT22;34357;51.948;6.132;2024-01-27T04:03:17;1.20;93.30
48579;DHT22;34357;51.948;6.132;2024-01-27T04:05:43;1.20;93.30
48579;DHT22;34357;51.948;6.132;2024-01-27T04:08:08;1.20;93.30
48579;DHT22;34357;51.948;6.132;2024-01-27T04:10:34;1.20;93.30
48579;DHT22;34357;51.948;6.132;2024-01-27T04:13:00;1.30;93.40
48579;DHT22;34357;51.948;6.132;2024-01-27T04:15:25;1.30;93.40
48579;DHT22;34357;51.948;6.132;2024-01-27T04:17:51;1.30;93.30
48579;DHT22;34357;51.948;6.132;2024-01-27T04:20:17;1.30;93.30
48579;DHT22;34357;51.948;6.132;2024-01-27T04:22:42;1.30;93.20
48579;DHT22;34357;51.948;6.132;2024-01-27T04:25:08;1.20;93.10
48579;DHT22;34357;51.948;6.132;2024-01-27T04:27:38;1.20;93.10
48579;DHT22;34357;51.948;6.132;2024-01-27T04:30:06;1.10;93.00
48579;DHT22;34357;51.948;6.132;2024-01-27T04:32:32;1.00;93.00
48579;DHT22;34357;51.948;6.132;2024-01-27T04:34:58;1.00;93.10
48579;DHT22;34357;51.948;6.132;2024-01-27T04:37:24;1.00;93.20
48579;DHT22;34357;51.948;6.132;2024-01-27T04:39:49;1.00;93.20
48579;DHT22;34357;51.948;6.132;2024-01-27T04:42:15;1.00;93.30
48579;DHT22;34357;51.948;6.132;2024-01-27T04:44:42;0.90;93.20
48579;DHT22;34357;51.948;6.132;2024-01-27T04:47:08;0.90;93.30
48579;DHT22;34357;51.948;6.132;2024-01-27T04:49:33;1.00;93.40
48579;DHT22;34357;51.948;6.132;2024-01-27T04:51:59;0.90;93.40
48579;DHT22;34357;51.948;6.132;2024-01-27T04:54:25;0.80;93.30
48579;DHT22;34357;51.948;6.132;2024-01-27T04:56:51;0.80;93.40
48579;DHT22;34357;51.948;6.132;2024-01-27T04:59:17;0.80;93.40
48579;DHT22;34357;51.948;6.132;2024-01-27T05:01:46;0.90;93.50
48579;DHT22;34357;51.948;6.132;2024-01-27T05:04:12;0.90;93.50
48579;DHT22;34357;51.948;6.132;2024-01-27T05:06:38;0.90;93.50
48579;DHT22;34357;51.948;6.132;2024-01-27T05:09:06;0.80;93.50
48579;DHT22;34357;51.948;6.132;2024-01-27T05:11:33;0.80;93.60
48579;DHT22;34357;51.948;6.132;2024-01-27T05:13:59;0.80;93.60
48579;DHT22;34357;51.948;6.132;2024-01-27T05:16:25;0.90;93.60
48579;DHT22;34357;51.948;6.132;2024-01-27T05:18:50;0.90;93.70
48579;DHT22;34357;51.948;6.132;2024-01-27T05:21:16;0.90;93.50
48579;DHT22;34357;51.948;6.132;2024-01-27T05:23:42;0.80;93.60
48579;DHT22;34357;51.948;6.132;2024-01-27T05:26:08;0.80;93.60
48579;DHT22;34357;51.948;6.132;2024-01-27T05:28:34;0.80;93.60
48579;DHT22;34357;51.948;6.132;2024-01-27T05:31:00;0.80;93.60
48579;DHT22;34357;51.948;6.132;2024-01-27T05:33:25;0.80;93.60
48579;DHT22;34357;51.948;6.132;2024-01-27T05:35:51;0.80;93.70
48579;DHT22;34357;51.948;6.132;2024-01-27T05:38:17;0.80;93.70
48579;DHT22;34357;51.948;6.132;2024-01-27T05:40:42;0.70;93.70
48579;DHT22;34357;51.948;6.132;2024-01-27T05:43:08;0.70;93.70
48579;DHT22;34357;51.948;6.132;2024-01-27T05:45:34;0.70;93.70
48579;DHT22;34357;51.948;6.132;2024-01-27T05:48:00;0.70;93.70
48579;DHT22;34357;51.948;6.132;2024-01-27T05:50:26;0.60;93.70
48579;DHT22;34357;51.948;6.132;2024-01-27T05:52:52;0.60;93.70
48579;DHT22;34357;51.948;6.132;2024-01-27T05:55:18;0.50;93.70
48579;DHT22;34357;51.948;6.132;2024-01-27T05:57:44;0.60;93.80
48579;DHT22;34357;51.948;6.132;2024-01-27T06:00:10;0.70;93.80
48579;DHT22;34357;51.948;6.132;2024-01-27T06:02:36;0.60;93.70
48579;DHT22;34357;51.948;6.132;2024-01-27T06:05:02;0.50;93.70
48579;DHT22;34357;51.948;6.132;2024-01-27T06:07:27;0.40;93.70
48579;DHT22;34357;51.948;6.132;2024-01-27T06:09:53;0.40;93.70
48579;DHT22;34357;51.948;6.132;2024-01-27T06:12:20;0.40;93.80
48579;DHT22;34357;51.948;6.132;2024-01-27T06:14:45;0.40;93.80
48579;DHT22;34357;51.948;6.132;2024-01-27T06:17:12;0.40;93.80
48579;DHT22;34357;51.948;6.132;2024-01-27T06:19:40;0.30;93.80
48579;DHT22;34357;51.948;6.132;2024-01-27T06:22:06;0.20;93.70
48579;DHT22;34357;51.948;6.132;2024-01-27T06:24:32;0.20;93.80
48579;DHT22;34357;51.948;6.132;2024-01-27T06:26:58;0.10;93.80
48579;DHT22;34357;51.948;6.132;2024-01-27T06:29:23;0.10;93.80
48579;DHT22;34357;51.948;6.132;2024-01-27T06:31:51;0.10;93.80
48579;DHT22;34357;51.948;6.132;2024-01-27T06:34:17;0.10;93.80
48579;DHT22;34357;51.948;6.132;2024-01-27T06:36:43;0.10;93.90
48579;DHT22;34357;51.948;6.132;2024-01-27T06:39:09;0.10;93.90
48579;DHT22;34357;51.948;6.132;2024-01-27T06:41:35;0.00;93.90
48579;DHT22;34357;51.948;6.132;2024-01-27T06:44:00;0.00;93.80
48579;DHT22;34357;51.948;6.132;2024-01-27T06:46:26;0.00;93.70
48579;DHT22;34357;51.948;6.132;2024-01-27T06:48:52;0.00;93.80
48579;DHT22;34357;51.948;6.132;2024-01-27T06:51:18;0.00;93.80
48579;DHT22;34357;51.948;6.132;2024-01-27T06:53:43;0.00;93.90
48579;DHT22;34357;51.948;6.132;2024-01-27T06:56:09;0.00;93.90
48579;DHT22;34357;51.948;6.132;2024-01-27T06:58:35;0.00;93.90
48579;DHT22;34357;51.948;6.132;2024-01-27T07:01:02;0.00;93.90
48579;DHT22;34357;51.948;6.132;2024-01-27T07:03:27;-0.10;93.80
48579;DHT22;34357;51.948;6.132;2024-01-27T07:05:53;-0.10;93.80
48579;DHT22;34357;51.948;6.132;2024-01-27T07:08:19;-0.20;93.80
48579;DHT22;34357;51.948;6.132;2024-01-27T07:10:45;-0.20;93.80
48579;DHT22;34357;51.948;6.132;2024-01-27T07:13:11;-0.20;93.80
48579;DHT22;34357;51.948;6.132;2024-01-27T07:15:36;-0.20;93.90
48579;DHT22;34357;51.948;6.132;2024-01-27T07:18:03;-0.20;93.90
48579;DHT22;34357;51.948;6.132;2024-01-27T07:20:29;-0.20;93.90
48579;DHT22;34357;51.948;6.132;2024-01-27T07:22:55;-0.20;93.90
48579;DHT22;34357;51.948;6.132;2024-01-27T07:25:20;-0.20;93.90
48579;DHT22;34357;51.948;6.132;2024-01-27T07:27:46;-0.20;93.90
48579;DHT22;34357;51.948;6.132;2024-01-27T07:30:12;-0.10;94.00
48579;DHT22;34357;51.948;6.132;2024-01-27T07:32:38;0.00;94.00
48579;DHT22;34357;51.948;6.132;2024-01-27T07:35:04;0.00;94.00
48579;DHT22;34357;51.948;6.132;2024-01-27T07:37:31;0.00;94.00
48579;DHT22;34357;51.948;6.132;2024-01-27T07:39:57;0.10;94.20
48579;DHT22;34357;51.948;6.132;2024-01-27T07:42:22;0.10;94.20
48579;DHT22;34357;51.948;6.132;2024-01-27T07:44:48;0.20;94.20
48579;DHT22;34357;51.948;6.132;2024-01-27T07:47:15;0.20;94.20
48579;DHT22;34357;51.948;6.132;2024-01-27T07:49:40;0.30;94.30
48579;DHT22;34357;51.948;6.132;2024-01-27T07:52:06;0.40;94.30
48579;DHT22;34357;51.948;6.132;2024-01-27T07:54:32;0.30;94.30
48579;DHT22;34357;51.948;6.132;2024-01-27T07:56:59;0.40;94.30
48579;DHT22;34357;51.948;6.132;2024-01-27T07:59:25;0.40;94.30
48579;DHT22;34357;51.948;6.132;2024-01-27T08:01:50;0.50;94.30
48579;DHT22;34357;51.948;6.132;2024-01-27T08:04:16;0.50;94.40
48579;DHT22;34357;51.948;6.132;2024-01-27T08:06:49;0.60;94.30
48579;DHT22;34357;51.948;6.132;2024-01-27T08:09:16;0.60;94.40
48579;DHT22;34357;51.948;6.132;2024-01-27T08:11:42;0.60;94.40
48579;DHT22;34357;51.948;6.132;2024-01-27T08:14:08;0.60;94.30
48579;DHT22;34357;51.948;6.132;2024-01-27T08:16:34;0.70;94.40
48579;DHT22;34357;51.948;6.132;2024-01-27T08:19:00;0.80;94.40
48579;DHT22;34357;51.948;6.132;2024-01-27T08:21:25;0.80;94.40
48579;DHT22;34357;51.948;6.132;2024-01-27T08:23:51;0.90;94.40
48579;DHT22;34357;51.948;6.132;2024-01-27T08:26:17;1.00;94.30
48579;DHT22;34357;51.948;6.132;2024-01-27T08:28:46;1.00;94.30
48579;DHT22;34357;51.948;6.132;2024-01-27T08:31:11;1.10;94.20
48579;DHT22;34357;51.948;6.132;2024-01-27T08:33:37;1.10;94.20
48579;DHT22;34357;51.948;6.132;2024-01-27T08:36:03;1.20;94.10
48579;DHT22;34357;51.948;6.132;2024-01-27T08:38:29;1.30;94.10
48579;DHT22;34357;51.948;6.132;2024-01-27T08:40:54;1.40;94.10
48579;DHT22;34357;51.948;6.132;2024-01-27T08:43:20;1.40;93.90
48579;DHT22;34357;51.948;6.132;2024-01-27T08:45:46;1.60;93.90
48579;DHT22;34357;51.948;6.132;2024-01-27T08:48:11;1.70;93.80
48579;DHT22;34357;51.948;6.132;2024-01-27T08:50:38;1.80;93.70
48579;DHT22;34357;51.948;6.132;2024-01-27T08:53:04;1.90;93.60
48579;DHT22;34357;51.948;6.132;2024-01-27T08:55:29;2.10;93.40
48579;DHT22;34357;51.948;6.132;2024-01-27T08:57:56;2.30;93.20
48579;DHT22;34357;51.948;6.132;2024-01-27T09:00:22;2.40;93.00
48579;DHT22;34357;51.948;6.132;2024-01-27T09:02:48;2.60;92.90
48579;DHT22;34357;51.948;6.132;2024-01-27T09:05:14;2.70;92.50
48579;DHT22;34357;51.948;6.132;2024-01-27T09:07:40;2.80;92.30
48579;DHT22;34357;51.948;6.132;2024-01-27T09:10:06;2.80;91.80
48579;DHT22;34357;51.948;6.132;2024-01-27T09:12:32;2.90;91.40
48579;DHT22;34357;51.948;6.132;2024-01-27T09:14:58;2.90;91.20
48579;DHT22;34357;51.948;6.132;2024-01-27T09:17:24;2.90;91.00
48579;DHT22;34357;51.948;6.132;2024-01-27T09:19:50;2.90;90.80
48579;DHT22;34357;51.948;6.132;2024-01-27T09:22:16;3.00;90.80
48579;DHT22;34357;51.948;6.132;2024-01-27T09:24:42;3.20;90.70
48579;DHT22;34357;51.948;6.132;2024-01-27T09:27:07;3.20;90.20
48579;DHT22;34357;51.948;6.132;2024-01-27T09:29:33;3.20;90.20
48579;DHT22;34357;51.948;6.132;2024-01-27T09:31:59;3.30;89.80
48579;DHT22;34357;51.948;6.132;2024-01-27T09:34:24;3.30;89.30
48579;DHT22;34357;51.948;6.132;2024-01-27T09:36:50;3.40;89.20
48579;DHT22;34357;51.948;6.132;2024-01-27T09:39:16;3.30;88.90
48579;DHT22;34357;51.948;6.132;2024-01-27T09:41:42;3.40;89.10
48579;DHT22;34357;51.948;6.132;2024-01-27T09:44:12;3.30;88.90
48579;DHT22;34357;51.948;6.132;2024-01-27T09:46:38;3.30;88.80
48579;DHT22;34357;51.948;6.132;2024-01-27T09:49:04;3.30;89.00
48579;DHT22;34357;51.948;6.132;2024-01-27T09:51:31;3.30;89.00
48579;DHT22;34357;51.948;6.132;2024-01-27T09:53:56;3.30;89.10
48579;DHT22;34357;51.948;6.132;2024-01-27T09:56:22;3.30;89.30
48579;DHT22;34357;51.948;6.132;2024-01-27T09:58:50;3.40;89.20
48579;DHT22;34357;51.948;6.132;2024-01-27T10:01:17;3.50;89.30
48579;DHT22;34357;51.948;6.132;2024-01-27T10:03:46;3.50;89.10
48579;DHT22;34357;51.948;6.132;2024-01-27T10:06:12;3.60;89.10
48579;DHT22;34357;51.948;6.132;2024-01-27T10:08:40;3.70;88.80
48579;DHT22;34357;51.948;6.132;2024-01-27T10:11:07;3.70;88.60
48579;DHT22;34357;51.948;6.132;2024-01-27T10:13:35;3.80;88.60
48579;DHT22;34357;51.948;6.132;2024-01-27T10:16:04;3.90;88.60
48579;DHT22;34357;51.948;6.132;2024-01-27T10:18:31;3.90;88.40
48579;DHT22;34357;51.948;6.132;2024-01-27T10:20:58;4.00;88.20
48579;DHT22;34357;51.948;6.132;2024-01-27T10:23:24;4.10;87.90
48579;DHT22;34357;51.948;6.132;2024-01-27T10:25:50;4.00;87.90
48579;DHT22;34357;51.948;6.132;2024-01-27T10:28:16;4.10;87.80
48579;DHT22;34357;51.948;6.132;2024-01-27T10:30:43;4.20;87.80
48579;DHT22;34357;51.948;6.132;2024-01-27T10:33:09;4.20;87.70
48579;DHT22;34357;51.948;6.132;2024-01-27T10:35:42;4.30;87.60
48579;DHT22;34357;51.948;6.132;2024-01-27T10:38:09;4.40;87.10
48579;DHT22;34357;51.948;6.132;2024-01-27T10:40:37;4.50;87.00
48579;DHT22;34357;51.948;6.132;2024-01-27T10:43:07;4.50;87.10
48579;DHT22;34357;51.948;6.132;2024-01-27T10:45:41;4.50;87.20
48579;DHT22;34357;51.948;6.132;2024-01-27T10:48:09;4.60;87.20
48579;DHT22;34357;51.948;6.132;2024-01-27T10:50:38;4.70;87.40
48579;DHT22;34357;51.948;6.132;2024-01-27T10:53:05;4.80;87.10
48579;DHT22;34357;51.948;6.132;2024-01-27T10:55:34;4.80;87.10
48579;DHT22;34357;51.948;6.132;2024-01-27T10:58:03;4.90;87.20
48579;DHT22;34357;51.948;6.132;2024-01-27T11:00:30;5.20;86.50
48579;DHT22;34357;51.948;6.132;2024-01-27T11:03:01;5.30;85.90
48579;DHT22;34357;51.948;6.132;2024-01-27T11:05:28;5.30;86.30
48579;DHT22;34357;51.948;6.132;2024-01-27T11:07:59;5.30;86.30
48579;DHT22;34357;51.948;6.132;2024-01-27T11:10:25;5.40;85.70
48579;DHT22;34357;51.948;6.132;2024-01-27T11:12:53;5.50;85.40
48579;DHT22;34357;51.948;6.132;2024-01-27T11:15:21;5.50;85.20
48579;DHT22;34357;51.948;6.132;2024-01-27T11:17:47;5.60;85.20
48579;DHT22;34357;51.948;6.132;2024-01-27T11:20:13;5.70;84.40
48579;DHT22;34357;51.948;6.132;2024-01-27T11:22:42;5.80;84.20
48579;DHT22;34357;51.948;6.132;2024-01-27T11:27:42;5.90;83.90
48579;DHT22;34357;51.948;6.132;2024-01-27T11:32:50;6.20;84.40
48579;DHT22;34357;51.948;6.132;2024-01-27T11:35:19;6.30;82.40
48579;DHT22;34357;51.948;6.132;2024-01-27T11:37:45;6.40;80.20
48579;DHT22;34357;51.948;6.132;2024-01-27T11:40:11;6.50;80.20
48579;DHT22;34357;51.948;6.132;2024-01-27T11:42:37;6.70;80.30
48579;DHT22;34357;51.948;6.132;2024-01-27T11:45:03;6.60;80.10
48579;DHT22;34357;51.948;6.132;2024-01-27T11:47:30;6.60;80.50
48579;DHT22;34357;51.948;6.132;2024-01-27T11:49:56;6.70;80.70
48579;DHT22;34357;51.948;6.132;2024-01-27T11:52:24;6.70;79.40
48579;DHT22;34357;51.948;6.132;2024-01-27T11:54:58;6.70;79.00
48579;DHT22;34357;51.948;6.132;2024-01-27T11:57:25;6.90;78.80
48579;DHT22;34357;51.948;6.132;2024-01-27T11:59:51;6.90;78.20
48579;DHT22;34357;51.948;6.132;2024-01-27T12:02:18;6.90;78.70
48579;DHT22;34357;51.948;6.132;2024-01-27T12:04:44;6.90;78.70
48579;DHT22;34357;51.948;6.132;2024-01-27T12:07:10;6.90;78.10
48579;DHT22;34357;51.948;6.132;2024-01-27T12:09:37;6.80;78.30
48579;DHT22;34357;51.948;6.132;2024-01-27T12:12:04;6.80;78.00
48579;DHT22;34357;51.948;6.132;2024-01-27T12:14:49;6.90;78.60
48579;DHT22;34357;51.948;6.132;2024-01-27T12:17:15;7.10;78.50
48579;DHT22;34357;51.948;6.132;2024-01-27T12:19:52;7.10;78.30
48579;DHT22;34357;51.948;6.132;2024-01-27T12:22:22;7.10;78.30
48579;DHT22;34357;51.948;6.132;2024-01-27T12:24:49;7.20;78.30
48579;DHT22;34357;51.948;6.132;2024-01-27T12:27:16;7.20;77.60
48579;DHT22;34357;51.948;6.132;2024-01-27T12:29:41;7.30;77.70
48579;DHT22;34357;51.948;6.132;2024-01-27T12:32:07;7.50;76.50
48579;DHT22;34357;51.948;6.132;2024-01-27T12:34:33;7.50;77.10
48579;DHT22;34357;51.948;6.132;2024-01-27T12:36:59;7.40;76.50
48579;DHT22;34357;51.948;6.132;2024-01-27T12:39:26;7.40;76.00
48579;DHT22;34357;51.948;6.132;2024-01-27T12:41:51;7.40;75.30
48579;DHT22;34357;51.948;6.132;2024-01-27T12:44:17;7.50;75.60
48579;DHT22;34357;51.948;6.132;2024-01-27T12:46:43;7.50;75.80
48579;DHT22;34357;51.948;6.132;2024-01-27T12:49:08;7.70;74.60
48579;DHT22;34357;51.948;6.132;2024-01-27T12:51:34;7.70;73.80
48579;DHT22;34357;51.948;6.132;2024-01-27T12:54:00;7.80;73.80
48579;DHT22;34357;51.948;6.132;2024-01-27T12:56:26;7.80;73.90
48579;DHT22;34357;51.948;6.132;2024-01-27T12:58:52;7.90;72.30
48579;DHT22;34357;51.948;6.132;2024-01-27T13:01:17;7.90;72.20
48579;DHT22;34357;51.948;6.132;2024-01-27T13:03:43;7.90;71.10
48579;DHT22;34357;51.948;6.132;2024-01-27T13:06:09;7.90;71.20
48579;DHT22;34357;51.948;6.132;2024-01-27T13:08:36;7.90;70.80
48579;DHT22;34357;51.948;6.132;2024-01-27T13:11:02;7.80;71.10
48579;DHT22;34357;51.948;6.132;2024-01-27T13:13:28;7.90;71.80
48579;DHT22;34357;51.948;6.132;2024-01-27T13:15:54;7.90;72.50
48579;DHT22;34357;51.948;6.132;2024-01-27T13:18:20;7.90;72.20
48579;DHT22;34357;51.948;6.132;2024-01-27T13:20:46;7.90;72.20
48579;DHT22;34357;51.948;6.132;2024-01-27T13:23:11;8.00;71.60
48579;DHT22;34357;51.948;6.132;2024-01-27T13:25:37;7.90;72.00
48579;DHT22;34357;51.948;6.132;2024-01-27T13:28:03;8.00;71.90
48579;DHT22;34357;51.948;6.132;2024-01-27T13:30:32;8.10;72.60
48579;DHT22;34357;51.948;6.132;2024-01-27T13:32:57;8.10;71.60
48579;DHT22;34357;51.948;6.132;2024-01-27T13:35:23;8.00;72.00
48579;DHT22;34357;51.948;6.132;2024-01-27T13:37:50;8.00;71.80
48579;DHT22;34357;51.948;6.132;2024-01-27T13:40:16;7.90;72.50
48579;DHT22;34357;51.948;6.132;2024-01-27T13:42:41;7.80;72.00
48579;DHT22;34357;51.948;6.132;2024-01-27T13:45:07;7.90;71.50
48579;DHT22;34357;51.948;6.132;2024-01-27T13:47:34;7.90;71.30
48579;DHT22;34357;51.948;6.132;2024-01-27T13:50:00;7.90;71.90
48579;DHT22;34357;51.948;6.132;2024-01-27T13:52:26;7.90;71.50
48579;DHT22;34357;51.948;6.132;2024-01-27T13:54:51;7.90;70.20
48579;DHT22;34357;51.948;6.132;2024-01-27T13:57:17;7.80;70.50
48579;DHT22;34357;51.948;6.132;2024-01-27T13:59:43;7.80;71.40
48579;DHT22;34357;51.948;6.132;2024-01-27T14:02:08;7.70;70.70
48579;DHT22;34357;51.948;6.132;2024-01-27T14:04:34;7.60;71.40
48579;DHT22;34357;51.948;6.132;2024-01-27T14:07:00;7.60;71.10
48579;DHT22;34357;51.948;6.132;2024-01-27T14:09:32;7.60;71.80
48579;DHT22;34357;51.948;6.132;2024-01-27T14:11:58;7.60;71.50
48579;DHT22;34357;51.948;6.132;2024-01-27T14:14:24;7.60;70.50
48579;DHT22;34357;51.948;6.132;2024-01-27T14:16:50;7.50;71.10
48579;DHT22;34357;51.948;6.132;2024-01-27T14:19:15;7.50;71.20
48579;DHT22;34357;51.948;6.132;2024-01-27T14:21:41;7.50;72.10
48579;DHT22;34357;51.948;6.132;2024-01-27T14:24:08;7.40;73.30
48579;DHT22;34357;51.948;6.132;2024-01-27T14:26:34;7.40;72.20
48579;DHT22;34357;51.948;6.132;2024-01-27T14:28:59;7.60;71.20
48579;DHT22;34357;51.948;6.132;2024-01-27T14:31:25;7.50;72.20
48579;DHT22;34357;51.948;6.132;2024-01-27T14:33:51;7.60;72.50
48579;DHT22;34357;51.948;6.132;2024-01-27T14:36:17;7.60;72.80
48579;DHT22;34357;51.948;6.132;2024-01-27T14:38:43;7.50;73.50
48579;DHT22;34357;51.948;6.132;2024-01-27T14:41:09;7.60;72.70
48579;DHT22;34357;51.948;6.132;2024-01-27T14:43:38;7.70;71.50
48579;DHT22;34357;51.948;6.132;2024-01-27T14:46:04;7.60;71.70
48579;DHT22;34357;51.948;6.132;2024-01-27T14:48:30;7.70;71.60
48579;DHT22;34357;51.948;6.132;2024-01-27T14:50:57;7.60;72.20
48579;DHT22;34357;51.948;6.132;2024-01-27T14:53:28;7.50;72.30
48579;DHT22;34357;51.948;6.132;2024-01-27T14:55:57;7.50;72.70
48579;DHT22;34357;51.948;6.132;2024-01-27T14:58:22;7.40;72.60
48579;DHT22;34357;51.948;6.132;2024-01-27T15:00:49;7.30;73.40
48579;DHT22;34357;51.948;6.132;2024-01-27T15:03:21;7.30;73.50
48579;DHT22;34357;51.948;6.132;2024-01-27T15:05:48;7.10;74.00
48579;DHT22;34357;51.948;6.132;2024-01-27T15:08:17;7.10;74.00
48579;DHT22;34357;51.948;6.132;2024-01-27T15:10:43;7.10;73.40
48579;DHT22;34357;51.948;6.132;2024-01-27T15:13:10;7.00;73.90
48579;DHT22;34357;51.948;6.132;2024-01-27T15:15:37;6.90;74.50
48579;DHT22;34357;51.948;6.132;2024-01-27T15:18:07;6.80;74.30
48579;DHT22;34357;51.948;6.132;2024-01-27T15:20:36;6.70;75.50
48579;DHT22;34357;51.948;6.132;2024-01-27T15:23:02;6.70;75.50
48579;DHT22;34357;51.948;6.132;2024-01-27T15:25:28;6.50;75.60
48579;DHT22;34357;51.948;6.132;2024-01-27T15:27:54;6.40;76.60
48579;DHT22;34357;51.948;6.132;2024-01-27T15:30:20;6.20;77.00
48579;DHT22;34357;51.948;6.132;2024-01-27T15:32:47;6.10;77.50
48579;DHT22;34357;51.948;6.132;2024-01-27T15:35:13;6.20;77.50
48579;DHT22;34357;51.948;6.132;2024-01-27T15:37:40;6.30;77.40
48579;DHT22;34357;51.948;6.132;2024-01-27T15:40:06;6.30;77.60
48579;DHT22;34357;51.948;6.132;2024-01-27T15:42:32;6.30;77.20
48579;DHT22;34357;51.948;6.132;2024-01-27T15:44:58;6.30;77.50